createdAt,value
2023-06-07T05:01:08.150Z,554.00
2023-06-07T05:02:08.078Z,552.00
2023-06-07T05:03:08.230Z,554.00
2023-06-07T05:04:08.156Z,555.00
2023-06-07T05:05:08.344Z,555.00
2023-06-07T05:06:08.176Z,558.00
2023-06-07T05:07:08.233Z,558.00
2023-06-07T05:08:08.267Z,558.00
2023-06-07T05:09:08.330Z,557.00
2023-06-07T05:10:08.810Z,553.00
2023-06-07T05:11:08.406Z,550.00
2023-06-07T05:12:08.437Z,552.00
2023-06-07T05:13:08.498Z,551.00
2023-06-07T05:14:08.462Z,552.00
2023-06-07T05:15:08.480Z,553.00
2023-06-07T05:16:08.564Z,552.00
2023-06-07T05:17:08.516Z,553.00
2023-06-07T05:18:08.642Z,553.00
2023-06-07T05:19:08.537Z,563.00
2023-06-07T05:20:08.609Z,566.00
2023-06-07T05:21:08.642Z,575.00
2023-06-07T05:22:08.648Z,579.00
2023-06-07T05:23:08.696Z,577.00
2023-06-07T05:24:08.799Z,626.00
2023-06-07T05:25:08.608Z,611.00
2023-06-07T05:26:08.640Z,602.00
2023-06-07T05:27:08.685Z,594.00
2023-06-07T05:28:13.643Z,589.00
2023-06-07T05:29:09.657Z,581.00
2023-06-07T05:30:08.667Z,577.00
2023-06-07T05:31:11.310Z,572.00
2023-06-07T05:32:08.695Z,571.00
2023-06-07T05:33:08.674Z,567.00
2023-06-07T05:34:08.612Z,564.00
2023-06-07T05:35:08.680Z,563.00
2023-06-07T05:36:08.611Z,560.00
2023-06-07T05:37:08.594Z,557.00
2023-06-07T05:38:08.625Z,553.00
2023-06-07T05:39:08.625Z,549.00
2023-06-07T05:40:08.609Z,546.00
2023-06-07T05:41:08.563Z,543.00
2023-06-07T05:42:08.962Z,541.00
2023-06-07T05:43:08.553Z,542.00
2023-06-07T05:44:08.745Z,540.00
2023-06-07T05:45:08.561Z,539.00
2023-06-07T05:46:08.587Z,538.00
2023-06-07T05:47:08.608Z,541.00
2023-06-07T05:48:08.796Z,542.00
2023-06-07T05:49:10.007Z,544.00
2023-06-07T05:50:08.855Z,542.00
2023-06-07T05:51:08.869Z,547.00
2023-06-07T05:52:08.516Z,550.00
2023-06-07T05:53:08.544Z,556.00
2023-06-07T05:54:08.526Z,561.00
2023-06-07T05:55:09.054Z,568.00
2023-06-07T05:56:08.489Z,572.00
2023-06-07T05:57:08.629Z,577.00
2023-06-07T05:58:08.454Z,576.00
2023-06-07T05:59:08.488Z,574.00
2023-06-07T06:00:08.629Z,574.00
2023-06-07T06:01:08.507Z,573.00
2023-06-07T06:02:08.443Z,577.00
2023-06-07T06:03:08.604Z,580.00
2023-06-07T06:04:08.462Z,610.00
2023-06-07T06:05:09.104Z,626.00
2023-06-07T06:06:08.413Z,648.00
2023-06-07T06:07:08.405Z,659.00
2023-06-07T06:08:09.048Z,664.00
2023-06-07T06:09:08.443Z,660.00
2023-06-07T06:10:08.617Z,666.00
2023-06-07T06:11:08.377Z,672.00
2023-06-07T06:12:08.454Z,661.00
2023-06-07T06:13:08.356Z,643.00
2023-06-07T06:14:08.631Z,630.00
2023-06-07T06:15:08.339Z,633.00
2023-06-07T06:16:11.240Z,636.00
2023-06-07T06:17:08.527Z,631.00
2023-06-07T06:18:08.481Z,629.00
2023-06-07T06:19:08.359Z,627.00
2023-06-07T06:20:10.806Z,630.00
2023-06-07T06:21:08.519Z,632.00
2023-06-07T06:22:14.957Z,635.00
2023-06-07T06:23:08.648Z,644.00
2023-06-07T06:24:08.498Z,639.00
2023-06-07T06:25:08.439Z,637.00
2023-06-07T06:26:08.397Z,639.00
2023-06-07T06:27:08.520Z,643.00
2023-06-07T06:28:08.509Z,638.00
2023-06-07T06:29:09.070Z,633.00
2023-06-07T06:30:08.578Z,633.00
2023-06-07T06:31:08.494Z,634.00
2023-06-07T06:32:08.577Z,635.00
2023-06-07T06:33:08.480Z,637.00
2023-06-07T06:34:08.427Z,640.00
2023-06-07T06:35:08.612Z,639.00
2023-06-07T06:36:08.363Z,648.00
2023-06-07T06:37:08.378Z,647.00
2023-06-07T06:38:08.339Z,642.00
2023-06-07T06:39:08.364Z,633.00
2023-06-07T06:40:08.421Z,639.00
2023-06-07T06:41:08.764Z,636.00
2023-06-07T06:42:08.422Z,630.00
2023-06-07T06:43:08.326Z,636.00
2023-06-07T06:44:08.644Z,648.00
2023-06-07T06:45:08.320Z,656.00
2023-06-07T06:46:08.321Z,644.00
2023-06-07T06:47:08.351Z,643.00
2023-06-07T06:48:08.290Z,638.00
2023-06-07T06:49:12.902Z,628.00
2023-06-07T06:50:18.580Z,631.00
2023-06-07T06:51:09.243Z,647.00
2023-06-07T06:52:08.236Z,626.00
2023-06-07T06:53:08.236Z,616.00
2023-06-07T06:54:08.256Z,611.00
2023-06-07T06:55:08.254Z,611.00
2023-06-07T06:56:08.203Z,621.00
2023-06-07T06:57:08.331Z,626.00
2023-06-07T06:58:08.204Z,624.00
2023-06-07T06:59:08.264Z,625.00
2023-06-07T07:00:08.302Z,624.00
2023-06-07T07:01:08.183Z,630.00
2023-06-07T07:02:08.286Z,633.00
2023-06-07T07:03:08.411Z,633.00
2023-06-07T07:04:08.234Z,648.00
2023-06-07T07:05:08.149Z,627.00
2023-06-07T07:06:08.186Z,629.00
2023-06-07T07:07:08.155Z,636.00
2023-06-07T07:08:08.680Z,644.00
2023-06-07T07:09:08.179Z,647.00
2023-06-07T07:10:08.315Z,649.00
2023-06-07T07:11:08.229Z,656.00
2023-06-07T07:12:08.227Z,660.00
2023-06-07T07:13:08.257Z,665.00
2023-06-07T07:14:08.279Z,660.00
2023-06-07T07:15:08.249Z,652.00
2023-06-07T07:16:08.644Z,646.00
2023-06-07T07:17:08.313Z,649.00
2023-06-07T07:18:08.521Z,648.00
2023-06-07T07:19:08.359Z,665.00
2023-06-07T07:20:08.584Z,664.00
2023-06-07T07:21:08.406Z,664.00
2023-06-07T07:22:08.324Z,658.00
2023-06-07T07:23:08.322Z,656.00
2023-06-07T07:24:08.517Z,657.00
2023-06-07T07:25:08.389Z,654.00
2023-06-07T07:26:08.392Z,650.00
2023-06-07T07:27:08.352Z,652.00
2023-06-07T07:28:09.088Z,656.00
2023-06-07T07:29:08.529Z,689.00
2023-06-07T07:30:08.557Z,701.00
2023-06-07T07:31:08.538Z,704.00
2023-06-07T07:32:08.604Z,708.00
2023-06-07T07:33:08.923Z,713.00
2023-06-07T07:34:08.677Z,723.00
2023-06-07T07:35:08.847Z,744.00
2023-06-07T07:36:08.826Z,757.00
2023-06-07T07:37:08.838Z,795.00
2023-06-07T07:38:13.539Z,797.00
2023-06-07T07:39:08.866Z,797.00
2023-06-07T07:40:09.018Z,800.00
2023-06-07T07:41:09.042Z,804.00
2023-06-07T07:42:08.906Z,815.00
2023-06-07T07:43:08.947Z,822.00
2023-06-07T07:44:08.859Z,827.00
2023-06-07T07:45:08.832Z,828.00
2023-06-07T07:46:08.868Z,829.00
2023-06-07T07:47:08.888Z,838.00
2023-06-07T07:48:08.913Z,848.00
2023-06-07T07:49:08.823Z,857.00
2023-06-07T07:50:08.870Z,862.00
2023-06-07T07:51:08.853Z,872.00
2023-06-07T07:52:08.780Z,925.00
2023-06-07T07:53:08.885Z,923.00
2023-06-07T07:54:08.746Z,936.00
2023-06-07T07:55:09.173Z,941.00
2023-06-07T07:56:08.819Z,989.00
2023-06-07T07:57:08.773Z,1002.00
2023-06-07T07:58:08.758Z,1000.00
2023-06-07T07:59:10.832Z,1000.00
2023-06-07T08:00:08.850Z,999.00
2023-06-07T08:01:08.776Z,993.00
2023-06-07T08:02:08.826Z,988.00
2023-06-07T08:03:08.998Z,983.00
2023-06-07T08:04:08.938Z,978.00
2023-06-07T08:05:08.930Z,976.00
2023-06-07T08:06:09.052Z,975.00
2023-06-07T08:07:09.066Z,973.00
2023-06-07T08:08:09.133Z,970.00
2023-06-07T08:09:09.233Z,967.00
2023-06-07T08:10:09.224Z,965.00
2023-06-07T08:11:09.250Z,855.00
2023-06-07T08:12:09.302Z,874.00
2023-06-07T08:13:09.318Z,885.00
2023-06-07T08:14:09.383Z,893.00
2023-06-07T08:15:10.039Z,893.00
2023-06-07T08:16:09.518Z,887.00
2023-06-07T08:17:09.546Z,888.00
2023-06-07T08:18:09.551Z,883.00
2023-06-07T08:19:09.674Z,864.00
2023-06-07T08:20:09.683Z,853.00
2023-06-07T08:21:09.746Z,849.00
2023-06-07T08:22:09.748Z,846.00
2023-06-07T08:23:12.173Z,844.00
2023-06-07T08:24:10.020Z,840.00
2023-06-07T08:25:10.491Z,836.00
2023-06-07T08:26:09.857Z,834.00
2023-06-07T08:27:09.820Z,831.00
2023-06-07T08:28:09.798Z,823.00
2023-06-07T08:29:09.756Z,821.00
2023-06-07T08:30:09.767Z,847.00
2023-06-07T08:31:09.754Z,871.00
2023-06-07T08:32:09.903Z,890.00
2023-06-07T08:33:09.761Z,906.00
2023-06-07T08:34:09.700Z,914.00
2023-06-07T08:35:09.756Z,922.00
2023-06-07T08:36:09.722Z,925.00
2023-06-07T08:37:09.734Z,920.00
2023-06-07T08:38:09.758Z,922.00
2023-06-07T08:39:09.697Z,925.00
2023-06-07T08:40:09.690Z,928.00
2023-06-07T08:41:09.698Z,938.00
2023-06-07T08:42:09.721Z,941.00
2023-06-07T08:43:09.716Z,943.00
2023-06-07T08:44:09.765Z,949.00
2023-06-07T08:45:09.795Z,1035.00
2023-06-07T08:46:10.169Z,1079.00
2023-06-07T08:47:09.922Z,1110.00
2023-06-07T08:48:09.970Z,1106.00
2023-06-07T08:49:09.954Z,1098.00
2023-06-07T08:50:09.934Z,1096.00
2023-06-07T08:51:09.945Z,1105.00
2023-06-07T08:52:16.311Z,1112.00
2023-06-07T08:53:11.034Z,1121.00
2023-06-07T08:54:09.990Z,1133.00
2023-06-07T08:55:10.247Z,1159.00
2023-06-07T08:56:09.955Z,1158.00
2023-06-07T08:57:10.056Z,1158.00
2023-06-07T08:58:09.953Z,1164.00
2023-06-07T08:59:09.921Z,1176.00
2023-06-07T09:00:10.369Z,1230.00
2023-06-07T09:01:09.932Z,1246.00
2023-06-07T09:02:09.934Z,1249.00
2023-06-07T09:03:10.077Z,1259.00
2023-06-07T09:04:09.937Z,1268.00
2023-06-07T09:05:09.894Z,1262.00
2023-06-07T09:06:09.901Z,1173.00
2023-06-07T09:07:09.897Z,1167.00
2023-06-07T09:08:09.893Z,1158.00
2023-06-07T09:09:09.893Z,1168.00
2023-06-07T09:10:09.848Z,1204.00
2023-06-07T09:11:09.878Z,1236.00
2023-06-07T09:12:09.911Z,1262.00
2023-06-07T09:13:09.896Z,1288.00
2023-06-07T09:14:09.950Z,1311.00
2023-06-07T09:15:09.950Z,1327.00
2023-06-07T09:16:10.132Z,1335.00
2023-06-07T09:17:10.083Z,1343.00
2023-06-07T09:18:10.030Z,1356.00
2023-06-07T09:19:09.998Z,1368.00
2023-06-07T09:20:09.977Z,1381.00
2023-06-07T09:21:09.998Z,1435.00
2023-06-07T09:22:10.056Z,1437.00
2023-06-07T09:23:09.990Z,1434.00
2023-06-07T09:24:10.077Z,1436.00
2023-06-07T09:25:10.050Z,1448.00
2023-06-07T09:26:10.026Z,1470.00
2023-06-07T09:27:10.055Z,1490.00
2023-06-07T09:28:10.223Z,1497.00
2023-06-07T09:29:10.066Z,1496.00
2023-06-07T09:30:10.068Z,1492.00
2023-06-07T09:31:10.139Z,1494.00
2023-06-07T09:32:10.137Z,1501.00
2023-06-07T09:33:10.213Z,1510.00
2023-06-07T09:34:10.141Z,1543.00
2023-06-07T09:35:10.148Z,1557.00
2023-06-07T09:36:10.470Z,1573.00
2023-06-07T09:37:10.290Z,1603.00
2023-06-07T09:38:10.277Z,1621.00
2023-06-07T09:39:10.223Z,1631.00
2023-06-07T09:40:10.335Z,1640.00
2023-06-07T09:41:10.353Z,1648.00
2023-06-07T09:42:10.419Z,1653.00
2023-06-07T09:43:10.562Z,1665.00
2023-06-07T09:44:10.550Z,1680.00
2023-06-07T09:45:10.544Z,1691.00
2023-06-07T09:46:10.643Z,1699.00
2023-06-07T09:47:10.687Z,1706.00
2023-06-07T09:48:11.007Z,1716.00
2023-06-07T09:49:10.797Z,1740.00
2023-06-07T09:50:10.755Z,1768.00
2023-06-07T09:51:10.823Z,1763.00
2023-06-07T09:52:10.951Z,1769.00
2023-06-07T09:53:10.956Z,1762.00
2023-06-07T09:54:11.100Z,1554.00
2023-06-07T09:55:11.039Z,1527.00
2023-06-07T09:56:11.058Z,1202.00
2023-06-07T09:57:11.131Z,1039.00
2023-06-07T09:58:11.127Z,990.00
2023-06-07T09:59:11.214Z,987.00
2023-06-07T10:00:11.187Z,970.00
2023-06-07T10:01:11.217Z,832.00
2023-06-07T10:02:11.119Z,813.00
2023-06-07T10:03:11.246Z,794.00
2023-06-07T10:04:12.136Z,772.00
2023-06-07T10:05:11.141Z,766.00
2023-06-07T10:06:11.170Z,701.00
2023-06-07T10:07:11.127Z,746.00
2023-06-07T10:08:11.244Z,795.00
2023-06-07T10:09:11.140Z,748.00
2023-06-07T10:10:11.722Z,756.00
2023-06-07T10:11:11.140Z,766.00
2023-06-07T10:12:11.149Z,767.00
2023-06-07T10:13:11.093Z,803.00
2023-06-07T10:14:11.071Z,776.00
2023-06-07T10:15:11.076Z,775.00
2023-06-07T10:16:11.142Z,782.00
2023-06-07T10:17:11.358Z,786.00
2023-06-07T10:18:11.085Z,785.00
2023-06-07T10:19:11.061Z,779.00
2023-06-07T10:20:11.060Z,768.00
2023-06-07T10:21:11.056Z,761.00
2023-06-07T10:22:11.057Z,757.00
2023-06-07T10:23:11.155Z,757.00
2023-06-07T10:24:11.208Z,722.00
2023-06-07T10:25:11.066Z,723.00
2023-06-07T10:26:11.107Z,730.00
2023-06-07T10:27:11.077Z,740.00
2023-06-07T10:28:11.272Z,747.00
2023-06-07T10:29:12.176Z,758.00
2023-06-07T10:30:11.274Z,758.00
2023-06-07T10:31:11.241Z,762.00
2023-06-07T10:32:11.233Z,764.00
2023-06-07T10:33:11.279Z,770.00
2023-06-07T10:34:11.250Z,777.00
2023-06-07T10:35:13.594Z,788.00
2023-06-07T10:36:11.221Z,789.00
2023-06-07T10:37:11.259Z,790.00
2023-06-07T10:38:11.256Z,796.00
2023-06-07T10:39:11.322Z,799.00
2023-06-07T10:40:11.388Z,802.00
2023-06-07T10:41:14.096Z,803.00
2023-06-07T10:42:11.357Z,804.00
2023-06-07T10:43:11.319Z,808.00
2023-06-07T10:44:11.215Z,812.00
2023-06-07T10:45:11.207Z,812.00
2023-06-07T10:46:11.245Z,815.00
2023-06-07T10:47:11.310Z,822.00
2023-06-07T10:48:11.249Z,825.00
2023-06-07T10:49:11.218Z,824.00
2023-06-07T10:50:11.499Z,822.00
2023-06-07T10:51:11.139Z,822.00
2023-06-07T10:52:11.289Z,821.00
2023-06-07T10:53:13.930Z,819.00
2023-06-07T10:54:11.147Z,818.00
2023-06-07T10:55:11.169Z,880.00
2023-06-07T10:56:12.182Z,864.00
2023-06-07T10:57:11.208Z,834.00
2023-06-07T10:58:11.087Z,830.00
2023-06-07T10:59:11.114Z,827.00
2023-06-07T11:00:11.179Z,826.00
2023-06-07T11:01:11.161Z,826.00
2023-06-07T11:02:11.174Z,826.00
2023-06-07T11:03:11.080Z,823.00
2023-06-07T11:04:11.261Z,822.00
2023-06-07T11:05:11.171Z,823.00
2023-06-07T11:06:11.071Z,828.00
2023-06-07T11:07:11.054Z,830.00
2023-06-07T11:08:11.014Z,834.00
2023-06-07T11:09:11.019Z,837.00
2023-06-07T11:10:11.451Z,837.00
2023-06-07T11:11:11.785Z,837.00
2023-06-07T11:12:11.008Z,846.00
2023-06-07T11:13:14.458Z,852.00
2023-06-07T11:14:11.106Z,848.00
2023-06-07T11:15:11.026Z,845.00
2023-06-07T11:16:11.041Z,855.00
2023-06-07T11:17:11.051Z,851.00
2023-06-07T11:18:15.512Z,848.00
2023-06-07T11:19:11.947Z,843.00
2023-06-07T11:20:10.972Z,841.00
2023-06-07T11:21:10.938Z,839.00
2023-06-07T11:22:11.033Z,838.00
2023-06-07T11:23:10.962Z,839.00
2023-06-07T11:24:10.983Z,835.00
2023-06-07T11:25:10.962Z,831.00
2023-06-07T11:26:10.938Z,828.00
2023-06-07T11:27:10.981Z,825.00
2023-06-07T11:28:10.908Z,823.00
2023-06-07T11:29:10.893Z,816.00
2023-06-07T11:30:10.932Z,814.00
2023-06-07T11:31:10.986Z,807.00
2023-06-07T11:32:10.904Z,800.00
2023-06-07T11:33:10.873Z,789.00
2023-06-07T11:34:10.847Z,783.00
2023-06-07T11:35:16.631Z,779.00
2023-06-07T11:36:12.610Z,775.00
2023-06-07T11:37:10.888Z,773.00
2023-06-07T11:38:10.858Z,767.00
2023-06-07T11:39:10.908Z,762.00
2023-06-07T11:40:10.827Z,758.00
2023-06-07T11:41:10.832Z,754.00
2023-06-07T11:42:10.813Z,752.00
2023-06-07T11:43:10.796Z,753.00
2023-06-07T11:44:10.804Z,753.00
2023-06-07T11:45:10.823Z,752.00
2023-06-07T11:46:10.838Z,754.00
2023-06-07T11:47:10.873Z,751.00
2023-06-07T11:48:10.898Z,749.00
2023-06-07T11:49:11.020Z,749.00
2023-06-07T11:50:10.965Z,764.00
2023-06-07T11:51:11.264Z,764.00
2023-06-07T11:52:11.168Z,769.00
2023-06-07T11:53:13.280Z,771.00
2023-06-07T11:54:11.224Z,785.00
2023-06-07T11:55:11.225Z,842.00
2023-06-07T11:56:11.172Z,855.00
2023-06-07T11:57:11.229Z,856.00
2023-06-07T11:58:11.223Z,857.00
2023-06-07T11:59:11.246Z,849.00
2023-06-07T12:00:11.232Z,756.00
2023-06-07T12:01:11.253Z,743.00
2023-06-07T12:02:11.304Z,753.00
2023-06-07T12:03:11.572Z,782.00
2023-06-07T12:04:11.401Z,767.00
2023-06-07T12:05:11.303Z,764.00
2023-06-07T12:06:11.333Z,766.00
2023-06-07T12:07:11.330Z,759.00
2023-06-07T12:08:11.386Z,741.00
2023-06-07T12:09:11.352Z,728.00
2023-06-07T12:10:11.382Z,728.00
2023-06-07T12:11:11.393Z,723.00
2023-06-07T12:12:11.380Z,712.00
2023-06-07T12:13:11.450Z,701.00
2023-06-07T12:14:11.424Z,691.00
2023-06-07T12:15:11.457Z,687.00
2023-06-07T12:16:11.504Z,687.00
2023-06-07T12:17:11.473Z,684.00
2023-06-07T12:18:11.504Z,681.00
2023-06-07T12:19:11.535Z,679.00
2023-06-07T12:20:11.490Z,680.00
2023-06-07T12:21:11.517Z,678.00
2023-06-07T12:22:11.588Z,682.00
2023-06-07T12:23:11.820Z,684.00
2023-06-07T12:24:11.728Z,683.00
2023-06-07T12:25:11.665Z,716.00
2023-06-07T12:26:11.634Z,709.00
2023-06-07T12:27:11.597Z,712.00
2023-06-07T12:28:11.612Z,712.00
2023-06-07T12:29:11.640Z,712.00
2023-06-07T12:30:11.709Z,710.00
2023-06-07T12:31:11.672Z,705.00
2023-06-07T12:32:11.643Z,696.00
2023-06-07T12:33:11.685Z,693.00
2023-06-07T12:34:11.683Z,697.00
2023-06-07T12:35:11.687Z,698.00
2023-06-07T12:36:11.755Z,695.00
2023-06-07T12:37:11.712Z,689.00
2023-06-07T12:38:11.732Z,677.00
2023-06-07T12:39:11.802Z,670.00
2023-06-07T12:40:11.800Z,668.00
2023-06-07T12:41:11.859Z,661.00
2023-06-07T12:42:11.809Z,662.00
2023-06-07T12:43:11.919Z,668.00
2023-06-07T12:44:11.943Z,671.00
2023-06-07T12:45:11.953Z,666.00
2023-06-07T12:46:11.989Z,639.00
2023-06-07T12:47:12.109Z,642.00
2023-06-07T12:48:12.051Z,648.00
2023-06-07T12:49:12.094Z,656.00
2023-06-07T12:50:12.165Z,663.00
2023-06-07T12:51:12.306Z,669.00
2023-06-07T12:52:12.640Z,671.00
2023-06-07T12:53:12.399Z,683.00
2023-06-07T12:54:12.389Z,719.00
2023-06-07T12:55:12.348Z,743.00
2023-06-07T12:56:12.430Z,756.00
2023-06-07T12:57:12.471Z,763.00
2023-06-07T12:58:12.536Z,766.00
2023-06-07T12:59:12.578Z,771.00
2023-06-07T13:00:12.654Z,776.00
2023-06-07T13:01:12.776Z,780.00
2023-06-07T13:02:12.699Z,791.00
2023-06-07T13:03:12.801Z,812.00
2023-06-07T13:04:13.240Z,827.00
2023-06-07T13:05:12.918Z,831.00
2023-06-07T13:06:12.907Z,836.00
2023-06-07T13:07:12.955Z,837.00
2023-06-07T13:08:12.990Z,843.00
2023-06-07T13:09:13.033Z,850.00
2023-06-07T13:10:13.081Z,858.00
2023-06-07T13:11:13.123Z,874.00
2023-06-07T13:12:13.174Z,896.00
2023-06-07T13:13:13.646Z,917.00
2023-06-07T13:14:13.249Z,932.00
2023-06-07T13:15:13.302Z,918.00
2023-06-07T13:16:13.446Z,912.00
2023-06-07T13:17:13.602Z,869.00
2023-06-07T13:18:13.685Z,877.00
2023-06-07T13:19:13.595Z,887.00
2023-06-07T13:20:13.628Z,892.00
2023-06-07T13:21:13.638Z,901.00
2023-06-07T13:22:13.725Z,908.00
2023-06-07T13:23:13.781Z,917.00
2023-06-07T13:24:13.843Z,929.00
2023-06-07T13:25:13.876Z,938.00
2023-06-07T13:26:13.912Z,943.00
2023-06-07T13:27:13.962Z,956.00
2023-06-07T13:28:14.034Z,971.00
2023-06-07T13:29:14.109Z,979.00
2023-06-07T13:30:14.127Z,984.00
2023-06-07T13:31:14.178Z,992.00
2023-06-07T13:32:14.600Z,995.00
2023-06-07T13:33:14.300Z,1005.00
2023-06-07T13:34:14.391Z,1000.00
2023-06-07T13:35:14.422Z,984.00
2023-06-07T13:36:14.493Z,994.00
2023-06-07T13:37:14.536Z,1008.00
2023-06-07T13:38:14.555Z,1044.00
2023-06-07T13:39:14.624Z,1020.00
2023-06-07T13:40:14.770Z,1025.00
2023-06-07T13:41:14.770Z,1032.00
2023-06-07T13:42:14.888Z,1027.00
2023-06-07T13:43:14.850Z,1024.00
2023-06-07T13:44:18.036Z,1028.00
2023-06-07T13:45:15.122Z,1035.00
2023-06-07T13:46:15.001Z,1054.00
2023-06-07T13:47:19.692Z,1062.00
2023-06-07T13:48:14.965Z,1069.00
2023-06-07T13:49:14.884Z,1069.00
2023-06-07T13:50:14.862Z,1072.00
2023-06-07T13:51:14.875Z,1085.00
2023-06-07T13:52:14.915Z,1098.00
2023-06-07T13:53:14.861Z,1106.00
2023-06-07T13:54:14.837Z,1120.00
2023-06-07T13:55:14.882Z,1137.00
2023-06-07T13:56:14.968Z,1156.00
2023-06-07T13:57:14.903Z,1168.00
2023-06-07T13:58:14.979Z,1166.00
2023-06-07T13:59:15.084Z,1150.00
2023-06-07T14:00:15.076Z,1131.00
2023-06-07T14:01:15.236Z,1123.00
2023-06-07T14:02:15.178Z,1114.00
2023-06-07T14:03:15.398Z,1096.00
2023-06-07T14:04:15.354Z,1073.00
2023-06-07T14:05:15.448Z,1063.00
2023-06-07T14:06:15.330Z,1046.00
2023-06-07T14:07:15.411Z,1027.00
2023-06-07T14:08:15.477Z,1016.00
2023-06-07T14:09:15.493Z,989.00
2023-06-07T14:10:15.593Z,985.00
2023-06-07T14:11:15.610Z,983.00
2023-06-07T14:12:15.675Z,985.00
2023-06-07T14:13:15.747Z,984.00
2023-06-07T14:14:15.821Z,980.00
2023-06-07T14:15:15.847Z,979.00
2023-06-07T14:16:15.886Z,976.00
2023-06-07T14:17:16.026Z,972.00
2023-06-07T14:18:15.981Z,971.00
2023-06-07T14:19:16.067Z,971.00
2023-06-07T14:20:16.099Z,970.00
2023-06-07T14:21:16.193Z,969.00
2023-06-07T14:22:18.549Z,968.00
2023-06-07T14:23:16.235Z,968.00
2023-06-07T14:24:16.352Z,967.00
2023-06-07T14:25:16.164Z,970.00
2023-06-07T14:26:16.520Z,968.00
2023-06-07T14:27:16.201Z,968.00
2023-06-07T14:28:18.387Z,967.00
2023-06-07T14:29:16.204Z,964.00
2023-06-07T14:30:16.232Z,962.00
2023-06-07T14:31:16.201Z,963.00
2023-06-07T14:32:16.154Z,964.00
2023-06-07T14:33:16.276Z,967.00
2023-06-07T14:34:16.112Z,963.00
2023-06-07T14:35:16.114Z,963.00
2023-06-07T14:36:16.129Z,961.00
2023-06-07T14:37:16.211Z,954.00
2023-06-07T14:38:16.089Z,953.00
2023-06-07T14:39:16.087Z,949.00
2023-06-07T14:40:16.072Z,943.00
2023-06-07T14:41:16.163Z,934.00
2023-06-07T14:42:18.257Z,931.00
2023-06-07T14:43:16.165Z,921.00
2023-06-07T14:44:16.152Z,908.00
2023-06-07T14:45:16.195Z,895.00
2023-06-07T14:46:17.753Z,888.00
2023-06-07T14:47:16.124Z,881.00
2023-06-07T14:48:16.048Z,883.00
2023-06-07T14:49:16.050Z,881.00
2023-06-07T14:50:16.039Z,875.00
2023-06-07T14:51:17.773Z,873.00
2023-06-07T14:52:16.112Z,864.00
2023-06-07T14:53:15.968Z,851.00
2023-06-07T14:54:17.712Z,850.00
2023-06-07T14:55:17.064Z,850.00
2023-06-07T14:56:16.000Z,852.00
2023-06-07T14:57:15.936Z,849.00
2023-06-07T14:58:15.992Z,851.00
2023-06-07T14:59:16.003Z,854.00
2023-06-07T15:00:16.076Z,855.00
2023-06-07T15:01:16.152Z,856.00
2023-06-07T15:02:16.160Z,857.00
2023-06-07T15:03:16.337Z,861.00
2023-06-07T15:04:16.302Z,864.00
2023-06-07T15:05:16.349Z,864.00
2023-06-07T15:06:16.294Z,865.00
2023-06-07T15:07:16.361Z,865.00
2023-06-07T15:08:16.401Z,865.00
2023-06-07T15:09:16.499Z,866.00
2023-06-07T15:10:16.532Z,864.00
2023-06-07T15:11:16.544Z,862.00
2023-06-07T15:12:16.597Z,862.00
2023-06-07T15:13:16.612Z,863.00
2023-06-07T15:14:16.699Z,858.00
2023-06-07T15:15:16.780Z,861.00
2023-06-07T15:16:16.900Z,860.00
2023-06-07T15:17:16.843Z,862.00
2023-06-07T15:18:16.941Z,862.00
2023-06-07T15:19:16.895Z,863.00
2023-06-07T15:20:16.970Z,863.00
2023-06-07T15:21:17.034Z,862.00
2023-06-07T15:22:17.091Z,860.00
2023-06-07T15:23:17.120Z,862.00
2023-06-07T15:24:17.272Z,859.00
2023-06-07T15:25:17.196Z,859.00
2023-06-07T15:26:17.275Z,857.00
2023-06-07T15:27:17.335Z,857.00
2023-06-07T15:28:17.354Z,852.00
2023-06-07T15:29:17.423Z,855.00
2023-06-07T15:30:17.434Z,854.00
2023-06-07T15:31:17.451Z,857.00
2023-06-07T15:32:17.511Z,858.00
2023-06-07T15:33:17.547Z,858.00
2023-06-07T15:34:17.634Z,857.00
2023-06-07T15:35:17.608Z,856.00
2023-06-07T15:36:17.716Z,856.00
2023-06-07T15:37:17.738Z,856.00
2023-06-07T15:38:17.766Z,855.00
2023-06-07T15:39:17.820Z,856.00
2023-06-07T15:40:17.816Z,855.00
2023-06-07T15:41:17.835Z,858.00
2023-06-07T15:42:17.881Z,858.00
2023-06-07T15:43:17.961Z,856.00
2023-06-07T15:44:17.986Z,853.00
2023-06-07T15:45:18.006Z,855.00
2023-06-07T15:46:18.075Z,855.00
2023-06-07T15:47:18.052Z,855.00
2023-06-07T15:48:18.078Z,857.00
2023-06-07T15:49:18.085Z,856.00
2023-06-07T15:50:18.115Z,855.00
2023-06-07T15:51:18.147Z,853.00
2023-06-07T15:52:18.194Z,854.00
2023-06-07T15:53:18.221Z,856.00
2023-06-07T15:54:18.235Z,856.00
2023-06-07T15:55:18.272Z,854.00
2023-06-07T15:56:18.282Z,852.00
2023-06-07T15:57:19.235Z,853.00
2023-06-07T15:58:18.296Z,856.00
2023-06-07T15:59:18.324Z,856.00
2023-06-07T16:00:32.756Z,854.00
2023-06-07T16:01:19.309Z,854.00
2023-06-07T16:02:18.318Z,852.00
2023-06-07T16:03:18.441Z,854.00
2023-06-07T16:04:18.409Z,858.00
2023-06-07T16:05:18.259Z,856.00
2023-06-07T16:06:18.253Z,855.00
2023-06-07T16:07:18.269Z,855.00
2023-06-07T16:08:18.254Z,860.00
2023-06-07T16:09:18.227Z,859.00
2023-06-07T16:10:18.258Z,858.00
2023-06-07T16:11:18.256Z,859.00
2023-06-07T16:12:18.236Z,861.00
2023-06-07T16:13:18.295Z,860.00
2023-06-07T16:14:18.228Z,862.00
2023-06-07T16:15:18.304Z,863.00
2023-06-07T16:16:18.207Z,864.00
2023-06-07T16:17:18.227Z,865.00
2023-06-07T16:18:18.210Z,866.00
2023-06-07T16:19:18.190Z,863.00
2023-06-07T16:20:18.189Z,863.00
2023-06-07T16:21:18.165Z,862.00
2023-06-07T16:22:18.197Z,861.00
2023-06-07T16:23:18.155Z,861.00
2023-06-07T16:24:18.278Z,859.00
2023-06-07T16:25:18.154Z,859.00
2023-06-07T16:26:18.159Z,856.00
2023-06-07T16:27:18.158Z,853.00
2023-06-07T16:28:18.146Z,850.00
2023-06-07T16:29:18.149Z,850.00
2023-06-07T16:30:18.114Z,851.00
2023-06-07T16:31:18.176Z,852.00
2023-06-07T16:32:18.078Z,852.00
2023-06-07T16:33:18.126Z,854.00
2023-06-07T16:34:18.117Z,857.00
2023-06-07T16:35:18.144Z,856.00
2023-06-07T16:36:18.130Z,854.00
2023-06-07T16:37:18.131Z,853.00
2023-06-07T16:38:18.178Z,854.00
2023-06-07T16:39:18.189Z,852.00
2023-06-07T16:40:18.182Z,850.00
2023-06-07T16:41:18.189Z,845.00
2023-06-07T16:42:18.210Z,842.00
2023-06-07T16:43:18.223Z,845.00
2023-06-07T16:44:18.767Z,845.00
2023-06-07T16:45:18.251Z,844.00
2023-06-07T16:46:18.337Z,845.00
2023-06-07T16:47:18.297Z,841.00
2023-06-07T16:48:18.279Z,842.00
2023-06-07T16:49:18.325Z,841.00
2023-06-07T16:50:18.328Z,840.00
2023-06-07T16:51:18.330Z,839.00
2023-06-07T16:52:18.348Z,836.00
2023-06-07T16:53:18.435Z,835.00
2023-06-07T16:54:18.363Z,832.00
2023-06-07T16:55:18.422Z,835.00
2023-06-07T16:56:18.393Z,836.00
2023-06-07T16:57:18.414Z,838.00
2023-06-07T16:58:18.454Z,839.00
2023-06-07T16:59:18.440Z,838.00
2023-06-07T17:00:26.930Z,839.00
